This is the latest recevied weather packets stored in our database for station/object WD7CGF. If no packets are shown the sender has not sent any weather packets the latest 1 day(s).
| Time | Temp. | Humidity | Pressure | Rain* | Wind** | Luminosity | Snow |
|---|---|---|---|---|---|---|---|
| 1778034518 | 23.89° C | 35% | 1008.8 hPa | 0 mm | - | - | - |
| 1778033914 | 24.44° C | 34% | 1008.8 hPa | 0 mm | - | - | - |
| 1778033304 | 25° C | 34% | 1009 hPa | 0 mm | - | - | - |
| 1778032709 | 25° C | 34% | 1008.8 hPa | 0 mm | - | - | - |
| 1778032109 | 25.56° C | 34% | 1008.8 hPa | 0 mm | - | - | - |
| 1778031515 | 26.11° C | 34% | 1008.8 hPa | 0 mm | - | - | - |
| 1778030903 | 26.11° C | 35% | 1008.7 hPa | 0 mm | - | - | - |
| 1778030317 | 26.67° C | 35% | 1008.7 hPa | 0 mm | - | - | - |
| 1778029704 | 26.67° C | 34% | 1008.9 hPa | 0 mm | - | - | - |
| 1778029109 | 27.22° C | 34% | 1008.9 hPa | 0 mm | - | - | - |
| 1778028499 | 27.22° C | 32% | 1008.9 hPa | 0 mm | - | - | - |
| 1778027903 | 27.22° C | 32% | 1008.9 hPa | 0 mm | - | - | - |
| 1778027315 | 27.22° C | 30% | 1008.7 hPa | 0 mm | - | - | - |
| 1778024915 | 27.78° C | 32% | 1009.2 hPa | 0 mm | - | - | - |
| 1778022501 | 27.78° C | 33% | 1009.1 hPa | 0 mm | - | - | - |
| 1778019510 | 28.33° C | 32% | 1009.4 hPa | 0 mm | - | - | - |
| 1778017720 | 27.78° C | 33% | 1009.5 hPa | 0 mm | - | - | - |
| 1778017112 | 27.78° C | 30% | 1009.5 hPa | 0 mm | - | - | - |
| 1778015301 | 27.22° C | 34% | 1010 hPa | 0 mm | - | - | - |
| 1778014102 | 27.22° C | 34% | 1010.1 hPa | 0 mm | - | - | - |
| 1778011701 | 26.11° C | 40% | 1010.4 hPa | 0 mm | - | - | - |
| 1778010510 | 26.11° C | 39% | 1010.6 hPa | 0 mm | - | - | - |
| 1778008721 | 25° C | 44% | 1010.7 hPa | 0 mm | - | - | - |
| 1778006309 | 25° C | 42% | 1011.1 hPa | 0 mm | - | - | - |
| 1778004506 | 24.44° C | 44% | 1011.1 hPa | 0 mm | - | - | - |
* Rain latest hour (hover to see other rain measurements)
** Current wind speed in m/s (hover to see current wind gust speed)